Time;durP1;ratioP1;P1;durP2;ratioP2;P2;SDS_P1;SDS_P2;PMS_P1;PMS_P2;Temp;Humidity;BMP_temperature;BMP_pressure;BME280_temperature;BME280_humidity;BME280_pressure;Samples;Min_cycle;Max_cycle;Signal;HPM_P1;HPM_P2
2021/05/16 00:00:41;;;;;;;4.33;3.70;;;;;;;22.78;52.90;99301.63;1794586;79;21129;-77
2021/05/16 00:03:08;;;;;;;3.60;3.25;;;;;;;22.78;52.96;99302.44;1799693;79;21063;-77
2021/05/16 00:05:35;;;;;;;4.12;3.45;;;;;;;22.79;52.96;99301.89;1789287;78;21433;-77
2021/05/16 00:08:02;;;;;;;4.03;3.65;;;;;;;22.78;52.97;99300.28;1777300;79;21046;-80
2021/05/16 00:10:28;;;;;;;3.60;3.30;;;;;;;22.77;53.02;99302.17;1806182;77;21020;-80
2021/05/16 00:12:58;;;;;;;3.65;3.35;;;;;;;22.75;53.03;99300.78;1782012;79;20980;-81
2021/05/16 00:15:27;;;;;;;3.60;3.30;;;;;;;22.75;53.08;99304.84;1786904;79;21079;-79
2021/05/16 00:17:54;;;;;;;3.70;3.30;;;;;;;22.73;53.11;99298.33;1775212;79;21070;-81
2021/05/16 00:20:23;;;;;;;4.30;3.58;;;;;;;22.73;53.12;99289.39;1760782;79;21573;-81
2021/05/16 00:22:50;;;;;;;4.08;3.70;;;;;;;22.73;53.16;99292.10;1794178;79;21004;-78
2021/05/16 00:25:18;;;;;;;4.15;3.37;;;;;;;22.71;53.19;99287.48;1776311;79;21583;-77
2021/05/16 00:27:45;;;;;;;3.40;3.10;;;;;;;22.70;53.20;99293.99;1785968;79;21024;-77
2021/05/16 00:30:15;;;;;;;3.90;3.50;;;;;;;22.69;53.25;99300.47;1787370;79;21769;-76
2021/05/16 00:32:42;;;;;;;3.90;3.60;;;;;;;22.68;53.27;99299.66;1799376;79;21062;-76
2021/05/16 00:35:10;;;;;;;3.60;3.30;;;;;;;22.67;53.31;99299.37;1788803;79;21045;-76
2021/05/16 00:37:37;;;;;;;3.90;3.50;;;;;;;22.66;53.36;99304.52;1771329;79;21138;-76
2021/05/16 00:40:05;;;;;;;3.25;2.95;;;;;;;22.66;53.38;99306.42;1768891;79;21662;-75
2021/05/16 00:42:32;;;;;;;3.60;3.20;;;;;;;22.64;53.39;99306.67;1775882;79;21617;-75
2021/05/16 00:45:04;;;;;;;3.52;3.22;;;;;;;22.64;53.43;99309.89;1780210;79;21550;-76
2021/05/16 00:47:30;;;;;;;3.52;3.22;;;;;;;22.62;53.45;99308.82;1730882;80;21574;-77
2021/05/16 00:49:57;;;;;;;3.52;3.22;;;;;;;22.61;53.48;99311.23;1782890;79;21551;-80
2021/05/16 00:52:24;;;;;;;3.33;3.02;;;;;;;22.60;53.51;99308.78;1784913;79;21333;-79
2021/05/16 00:54:52;;;;;;;3.70;3.40;;;;;;;22.59;53.55;99310.67;1792426;79;21070;-79
2021/05/16 00:57:20;;;;;;;3.27;2.98;;;;;;;22.59;53.56;99312.03;1792003;79;21130;-80
2021/05/16 00:59:47;;;;;;;4.03;3.30;;;;;;;22.57;53.58;99311.47;1783561;79;21549;-76
2021/05/16 01:02:14;;;;;;;3.70;3.40;;;;;;;22.56;53.63;99313.38;1784004;79;21102;-80
2021/05/16 01:04:41;;;;;;;3.72;3.42;;;;;;;22.56;53.66;99323.36;1779325;79;21039;-80
2021/05/16 01:07:08;;;;;;;3.58;3.27;;;;;;;22.54;53.68;99321.45;1768966;79;21134;-80
2021/05/16 01:09:34;;;;;;;3.87;3.42;;;;;;;22.53;53.71;99332.82;1785503;79;21111;-78
2021/05/16 01:12:03;;;;;;;3.50;3.20;;;;;;;22.52;53.72;99325.79;1792205;78;21057;-78
2021/05/16 01:14:36;;;;;;;4.10;3.70;;;;;;;22.51;53.74;99324.14;1801852;78;21073;-77
2021/05/16 01:16:59;;;;;;;4.30;3.42;;;;;;;22.50;53.80;99326.58;1812865;78;21037;-78
2021/05/16 01:19:25;;;;;;;3.72;3.40;;;;;;;22.49;53.83;99331.70;1823306;78;21073;-78
2021/05/16 01:21:54;;;;;;;3.52;3.22;;;;;;;22.46;53.87;99325.44;1795217;78;21031;-78
2021/05/16 01:24:24;;;;;;;3.58;3.27;;;;;;;22.47;53.88;99319.52;1813293;78;21101;-78
2021/05/16 01:26:53;;;;;;;3.77;3.47;;;;;;;22.45;53.91;99319.77;1794623;78;21031;-78
2021/05/16 01:29:21;;;;;;;3.87;3.47;;;;;;;22.45;53.93;99322.47;1799805;78;21580;-77
2021/05/16 01:31:48;;;;;;;3.60;3.30;;;;;;;22.43;53.99;99317.85;1808264;78;21057;-75
2021/05/16 01:34:16;;;;;;;3.70;3.40;;;;;;;22.43;53.99;99330.03;1827531;78;21028;-74
2021/05/16 01:36:43;;;;;;;4.40;3.37;;;;;;;22.43;54.01;99331.92;1801677;78;21034;-75
2021/05/16 01:39:12;;;;;;;3.70;3.40;;;;;;;22.41;54.05;99333.53;1825562;78;21086;-76
2021/05/16 01:41:39;;;;;;;3.87;3.58;;;;;;;22.39;54.08;99328.91;1819810;78;21007;-75
2021/05/16 01:44:10;;;;;;;3.62;3.33;;;;;;;22.38;54.10;99325.91;1797699;78;21304;-77
2021/05/16 01:46:35;;;;;;;3.72;3.42;;;;;;;22.37;54.13;99322.39;1815710;77;21017;-76
2021/05/16 01:49:01;;;;;;;3.45;3.15;;;;;;;22.37;54.20;99321.58;1799734;78;21065;-77
2021/05/16 01:51:29;;;;;;;3.12;2.85;;;;;;;22.35;54.18;99324.54;1799968;78;21058;-76
2021/05/16 01:53:56;;;;;;;3.92;3.52;;;;;;;22.35;54.22;99330.50;1812709;78;21109;-78
2021/05/16 01:56:26;;;;;;;3.55;3.25;;;;;;;22.34;54.23;99325.59;1809213;78;21264;-74
2021/05/16 01:58:53;;;;;;;3.72;3.40;;;;;;;22.33;54.26;99332.64;1813449;78;21086;-75
2021/05/16 02:01:20;;;;;;;4.00;3.60;;;;;;;22.32;54.30;99340.47;1790920;78;21548;-77
2021/05/16 02:03:48;;;;;;;4.33;3.92;;;;;;;22.29;54.35;99342.31;1811356;78;21152;-77
2021/05/16 02:06:16;;;;;;;3.87;3.45;;;;;;;22.28;54.38;99342.86;1811768;78;21588;-76
2021/05/16 02:08:43;;;;;;;3.87;3.47;;;;;;;22.27;54.39;99332.28;1795854;78;21128;-77
2021/05/16 02:11:12;;;;;;;3.55;3.25;;;;;;;22.26;54.42;99340.14;1794999;78;21072;-78
2021/05/16 02:13:41;;;;;;;4.08;3.67;;;;;;;22.25;54.47;99349.31;1783664;79;21038;-78
2021/05/16 02:16:11;;;;;;;3.70;3.40;;;;;;;22.24;54.49;99351.72;1780730;79;21103;-79
2021/05/16 02:18:38;;;;;;;3.67;3.35;;;;;;;22.22;54.51;99357.38;1774127;79;21021;-78
2021/05/16 02:21:09;;;;;;;4.03;3.62;;;;;;;22.21;54.58;99348.97;1763049;79;21739;-77
2021/05/16 02:23:40;;;;;;;3.98;3.67;;;;;;;22.20;54.62;99356.82;1780175;79;21066;-77
2021/05/16 02:26:07;;;;;;;3.67;3.37;;;;;;;22.19;54.60;99353.81;1757585;79;21086;-77
2021/05/16 02:28:36;;;;;;;4.70;3.65;;;;;;;22.18;54.64;99354.36;1780750;79;21099;-78
2021/05/16 02:31:09;;;;;;;4.20;3.83;;;;;;;22.18;54.68;99356.25;1769842;79;21059;-77
2021/05/16 02:33:36;;;;;;;3.55;3.25;;;;;;;22.17;54.68;99348.69;1762775;79;21079;-77
2021/05/16 02:36:03;;;;;;;4.55;4.15;;;;;;;22.16;54.71;99352.98;1786690;79;21039;-78
2021/05/16 02:38:31;;;;;;;4.08;3.67;;;;;;;22.15;54.75;99361.62;1791940;77;21141;-80
2021/05/16 02:40:59;;;;;;;3.70;3.40;;;;;;;22.14;54.79;99359.19;1801881;79;21103;-79
2021/05/16 02:43:25;;;;;;;4.15;3.75;;;;;;;22.14;54.80;99364.60;1804880;79;21012;-78
2021/05/16 02:45:52;;;;;;;3.92;3.62;;;;;;;22.14;54.86;99370.02;1785657;79;21658;-78
2021/05/16 02:48:20;;;;;;;4.15;3.77;;;;;;;22.13;54.86;99368.36;1786958;79;21030;-76
2021/05/16 02:50:46;;;;;;;3.90;3.55;;;;;;;22.12;54.90;99374.31;1758241;79;21102;-79
2021/05/16 02:53:17;;;;;;;3.77;3.37;;;;;;;22.12;54.93;99374.31;1769594;79;21051;-78
2021/05/16 02:55:45;;;;;;;4.12;3.72;;;;;;;22.11;54.95;99378.08;1787984;79;21637;-78
2021/05/16 02:58:11;;;;;;;3.45;3.20;;;;;;;22.11;55.00;99378.08;1796903;78;21121;-77
2021/05/16 03:00:41;;;;;;;4.08;3.67;;;;;;;22.11;55.02;99379.97;1791031;79;21067;-78
2021/05/16 03:03:08;;;;;;;4.37;3.72;;;;;;;22.11;55.03;99372.67;1794578;79;21650;-79
2021/05/16 03:05:35;;;;;;;3.70;3.40;;;;;;;22.11;55.09;99371.86;1787198;79;21095;-77
2021/05/16 03:08:02;;;;;;;3.83;3.52;;;;;;;22.11;55.13;99371.86;1788506;79;21051;-80
2021/05/16 03:10:29;;;;;;;3.87;3.58;;;;;;;22.12;55.20;99374.86;1771348;79;21701;-78
2021/05/16 03:12:56;;;;;;;3.60;3.30;;;;;;;22.11;55.20;99371.86;1778141;79;21090;-79
2021/05/16 03:15:23;;;;;;;3.55;3.25;;;;;;;22.12;55.23;99373.51;1765114;79;21023;-78
2021/05/16 03:17:50;;;;;;;4.20;3.55;;;;;;;22.12;55.31;99373.51;1781520;79;21120;-79
2021/05/16 03:20:16;;;;;;;4.40;4.00;;;;;;;22.12;55.35;99377.02;1796014;79;21093;-79
2021/05/16 03:22:43;;;;;;;4.03;3.62;;;;;;;22.13;55.37;99373.23;1781139;79;21091;-78
2021/05/16 03:25:11;;;;;;;4.20;3.80;;;;;;;22.15;55.41;99376.50;1766515;79;21058;-77
2021/05/16 03:27:39;;;;;;;3.80;3.50;;;;;;;22.16;55.41;99374.63;1763296;79;21073;-77
2021/05/16 03:30:08;;;;;;;3.72;3.40;;;;;;;22.16;55.44;99371.38;1799070;79;21031;-77
2021/05/16 03:32:36;;;;;;;3.80;3.50;;;;;;;22.17;55.46;99368.13;1791002;79;21067;-79
2021/05/16 03:35:07;;;;;;;3.80;3.50;;;;;;;22.18;55.44;99370.59;1794679;79;21645;-77
2021/05/16 03:37:33;;;;;;;4.17;3.87;;;;;;;22.18;55.46;99371.14;1785113;79;21115;-78
2021/05/16 03:39:59;;;;;;;4.30;3.90;;;;;;;22.19;55.48;99374.11;1781514;78;21287;-76
2021/05/16 03:42:26;;;;;;;3.42;3.12;;;;;;;22.19;55.51;99380.36;1780439;79;21118;-74
2021/05/16 03:44:56;;;;;;;3.75;3.45;;;;;;;22.20;55.50;99382.52;1772725;79;21102;-76
2021/05/16 03:47:23;;;;;;;4.25;3.80;;;;;;;22.22;55.53;99384.44;1784121;79;21119;-78
2021/05/16 03:49:49;;;;;;;3.83;3.52;;;;;;;22.23;55.57;99385.24;1758213;79;21633;-77
2021/05/16 03:52:19;;;;;;;4.00;3.60;;;;;;;22.23;55.55;99395.52;1783675;79;21571;-77
2021/05/16 03:54:44;;;;;;;3.95;3.55;;;;;;;22.23;55.57;99398.77;1766461;79;21050;-79
2021/05/16 03:57:10;;;;;;;4.55;4.15;;;;;;;22.26;55.60;99403.72;1799166;79;21553;-78
2021/05/16 03:59:37;;;;;;;3.95;3.65;;;;;;;22.27;55.56;99399.41;1804318;78;21080;-74
2021/05/16 04:02:03;;;;;;;3.70;3.40;;;;;;;22.30;55.55;99402.14;1755680;80;21106;-76
2021/05/16 04:04:30;;;;;;;4.10;3.80;;;;;;;22.31;55.53;99403.24;1788407;79;21078;-76
2021/05/16 04:06:56;;;;;;;4.65;4.25;;;;;;;22.34;55.52;99410.03;1764611;79;21613;-76
2021/05/16 04:09:23;;;;;;;4.05;3.75;;;;;;;22.38;55.52;99412.50;1775501;79;21044;-76
2021/05/16 04:11:51;;;;;;;4.28;3.87;;;;;;;22.39;55.49;99419.56;1776506;79;21074;-73
2021/05/16 04:14:22;;;;;;;4.30;3.95;;;;;;;22.42;55.46;99420.94;1786187;79;21030;-78
2021/05/16 04:16:50;;;;;;;3.72;3.35;;;;;;;22.44;55.44;99420.14;1766135;80;21039;-77
2021/05/16 04:19:18;;;;;;;3.60;3.30;;;;;;;22.46;55.40;99425.58;1799375;79;21578;-76
2021/05/16 04:21:44;;;;;;;3.72;3.42;;;;;;;22.51;55.38;99418.88;1786413;79;21023;-79
2021/05/16 04:24:11;;;;;;;3.65;3.27;;;;;;;22.54;55.30;99420.25;1806268;79;21056;-77
2021/05/16 04:26:38;;;;;;;3.50;3.20;;;;;;;22.57;55.24;99414.34;1782219;79;21082;-74
2021/05/16 04:29:05;;;;;;;4.22;3.83;;;;;;;22.60;55.22;99408.94;1799489;79;21091;-74
2021/05/16 04:31:33;;;;;;;3.60;3.30;;;;;;;22.61;55.18;99410.04;1771430;77;21059;-74
2021/05/16 04:33:59;;;;;;;4.15;3.85;;;;;;;22.63;55.14;99411.14;1770271;77;21028;-74
2021/05/16 04:36:26;;;;;;;4.30;3.90;;;;;;;22.66;55.12;99406.59;1780435;79;21489;-78
2021/05/16 04:38:52;;;;;;;3.83;3.52;;;;;;;22.69;55.07;99406.06;1776944;79;21114;-78
2021/05/16 04:41:20;;;;;;;3.75;3.45;;;;;;;22.73;55.04;99411.23;1801060;77;21057;-78
2021/05/16 04:43:46;;;;;;;3.90;3.60;;;;;;;22.75;54.98;99409.09;1781555;79;21618;-78
2021/05/16 04:46:13;;;;;;;3.87;3.55;;;;;;;22.77;54.98;99405.59;1781873;79;21038;-76
2021/05/16 04:48:40;;;;;;;4.35;3.95;;;;;;;22.79;54.98;99402.08;1791532;77;21490;-76
2021/05/16 04:51:06;;;;;;;3.72;3.42;;;;;;;22.81;54.92;99398.58;1775744;79;21107;-77
2021/05/16 04:53:34;;;;;;;3.85;3.55;;;;;;;22.83;54.92;99398.33;1785798;79;21070;-76
2021/05/16 04:56:01;;;;;;;4.10;3.70;;;;;;;22.83;54.92;99394.27;1800086;79;21059;-79
2021/05/16 04:58:27;;;;;;;3.70;3.40;;;;;;;22.85;54.92;99399.72;1795382;79;21047;-78
2021/05/16 05:00:54;;;;;;;4.53;4.12;;;;;;;22.85;54.91;99397.02;1767558;79;21075;-78
2021/05/16 05:03:22;;;;;;;3.77;3.47;;;;;;;22.90;54.92;99396.23;1777606;79;21075;-78
2021/05/16 05:05:54;;;;;;;4.30;3.85;;;;;;;22.91;54.90;99397.88;1772238;79;21094;-77
2021/05/16 05:08:25;;;;;;;3.87;3.58;;;;;;;22.92;54.88;99396.25;1797874;78;21124;-78
2021/05/16 05:10:52;;;;;;;4.20;3.80;;;;;;;22.94;54.86;99391.38;1770944;79;21027;-75
2021/05/16 05:13:19;;;;;;;4.10;3.70;;;;;;;22.94;54.88;99390.03;1810345;78;21117;-77
2021/05/16 05:15:45;;;;;;;4.30;3.90;;;;;;;22.96;54.88;99387.88;1818532;78;21217;-78
2021/05/16 05:18:14;;;;;;;4.12;3.72;;;;;;;22.98;54.85;99386.27;1809805;78;21066;-78
2021/05/16 05:20:40;;;;;;;4.33;3.92;;;;;;;23.01;54.84;99387.67;1770080;79;21640;-76
2021/05/16 05:23:07;;;;;;;4.40;4.00;;;;;;;23.04;54.83;99388.52;1809862;78;21601;-73
2021/05/16 05:25:34;;;;;;;4.33;3.95;;;;;;;23.05;54.80;99388.81;1807959;78;21059;-78
2021/05/16 05:28:00;;;;;;;4.05;3.75;;;;;;;23.08;54.79;99381.50;1805598;78;21117;-78
2021/05/16 05:30:27;;;;;;;4.30;4.00;;;;;;;23.10;54.78;99380.70;1816746;78;21978;-78
2021/05/16 05:32:53;;;;;;;3.60;3.30;;;;;;;23.12;54.76;99376.68;1797540;78;21025;-77
2021/05/16 05:35:20;;;;;;;3.75;3.45;;;;;;;23.16;54.76;99379.69;1795514;78;21029;-75
2021/05/16 05:37:46;;;;;;;4.20;3.80;;;;;;;23.18;54.75;99382.11;1791327;78;21613;-75
2021/05/16 05:40:15;;;;;;;4.03;3.72;;;;;;;23.20;54.75;99374.55;1796092;78;21046;-75
2021/05/16 05:42:41;;;;;;;3.75;3.45;;;;;;;23.23;54.75;99378.91;1789426;78;22538;-74
2021/05/16 05:45:09;;;;;;;4.10;3.70;;;;;;;23.24;54.75;99365.65;1802947;78;21123;-77
2021/05/16 05:47:36;;;;;;;4.33;3.98;;;;;;;23.28;54.75;99368.66;1798681;78;20994;-75
2021/05/16 05:50:04;;;;;;;4.28;3.98;;;;;;;23.30;54.76;99372.73;1793946;78;21171;-74
2021/05/16 05:52:32;;;;;;;3.77;3.47;;;;;;;23.33;54.74;99369.52;1787748;78;21615;-74
2021/05/16 05:54:58;;;;;;;4.08;3.72;;;;;;;23.35;54.75;99363.80;1805544;78;21065;-75
2021/05/16 05:57:25;;;;;;;3.80;3.50;;;;;;;23.39;54.75;99370.33;1815967;78;22170;-77
2021/05/16 05:59:52;;;;;;;3.62;3.33;;;;;;;23.42;54.74;99366.30;1795368;78;21625;-79
2021/05/16 06:02:18;;;;;;;3.70;3.40;;;;;;;23.46;54.73;99364.70;1794740;78;21034;-74
2021/05/16 06:04:45;;;;;;;3.95;3.65;;;;;;;23.48;54.74;99370.13;1800438;78;21058;-75
2021/05/16 06:07:13;;;;;;;3.90;3.60;;;;;;;23.51;54.71;99368.80;1811060;78;20982;-75
2021/05/16 06:09:39;;;;;;;3.83;3.52;;;;;;;23.54;54.68;99364.20;1815943;78;21097;-75
2021/05/16 06:12:07;;;;;;;4.05;3.65;;;;;;;23.58;54.68;99369.36;1797771;78;21515;-75
2021/05/16 06:14:34;;;;;;;3.70;3.40;;;;;;;23.61;54.68;99374.27;1812183;77;21065;-75
2021/05/16 06:17:01;;;;;;;4.28;3.87;;;;;;;23.65;54.66;99375.92;1827076;78;21009;-76
2021/05/16 06:19:28;;;;;;;3.80;3.47;;;;;;;23.68;54.63;99374.02;1818328;78;21018;-76
2021/05/16 06:21:54;;;;;;;3.70;3.40;;;;;;;23.72;54.65;99375.96;1801346;78;21053;-78
2021/05/16 06:24:20;;;;;;;3.50;3.20;;;;;;;23.76;54.63;99376.25;1798738;77;21102;-77
2021/05/16 06:26:47;;;;;;;3.55;3.25;;;;;;;23.79;54.61;99372.22;1805811;78;21052;-77
2021/05/16 06:29:14;;;;;;;3.50;3.20;;;;;;;23.82;54.60;99373.87;1795028;78;21015;-76
2021/05/16 06:31:42;;;;;;;3.47;3.17;;;;;;;23.86;54.57;99377.68;1799858;78;21046;-76
2021/05/16 06:34:09;;;;;;;3.37;3.12;;;;;;;23.90;54.58;99377.97;1808291;78;21030;-76
2021/05/16 06:36:35;;;;;;;3.87;3.58;;;;;;;23.92;54.54;99381.23;1797137;78;21058;-77
2021/05/16 06:39:06;;;;;;;3.47;3.17;;;;;;;23.96;54.53;99389.66;1813982;78;21652;-77
2021/05/16 06:41:33;;;;;;;3.52;3.22;;;;;;;23.99;54.52;99384.52;1815399;78;21091;-77
2021/05/16 06:44:00;;;;;;;4.20;3.47;;;;;;;24.03;54.48;99384.27;1798107;78;22337;-76
2021/05/16 06:46:27;;;;;;;3.90;3.60;;;;;;;24.07;54.49;99386.72;1803214;78;21042;-78
2021/05/16 06:48:55;;;;;;;3.80;3.50;;;;;;;24.10;54.48;99384.81;1797152;78;21629;-77
2021/05/16 06:51:21;;;;;;;3.80;3.27;;;;;;;24.14;54.42;99390.02;1809062;78;21118;-76
2021/05/16 06:53:48;;;;;;;3.40;3.10;;;;;;;24.19;54.45;99384.33;1802221;78;21050;-77
2021/05/16 06:56:15;;;;;;;3.72;3.42;;;;;;;24.23;54.40;99381.34;1815474;78;21057;-76
2021/05/16 06:58:42;;;;;;;3.90;3.60;;;;;;;24.25;54.39;99377.82;1805038;78;21054;-77
2021/05/16 07:01:09;;;;;;;3.62;3.33;;;;;;;24.29;54.39;99376.20;1805478;78;21042;-78
2021/05/16 07:03:37;;;;;;;3.40;3.10;;;;;;;24.31;54.40;99376.75;1812703;77;21068;-77
2021/05/16 07:06:05;;;;;;;3.17;2.92;;;;;;;24.33;54.42;99380.81;1797568;78;21042;-77
2021/05/16 07:08:33;;;;;;;3.25;2.98;;;;;;;24.36;54.39;99384.08;1823839;78;21010;-77
2021/05/16 07:11:02;;;;;;;3.47;3.17;;;;;;;24.39;54.40;99380.84;1806775;78;21038;-77
2021/05/16 07:13:29;;;;;;;3.17;2.98;;;;;;;24.42;54.37;99386.55;1806439;78;21588;-75
2021/05/16 07:15:55;;;;;;;3.20;2.90;;;;;;;24.46;54.32;99384.92;1801822;78;21526;-76
2021/05/16 07:18:23;;;;;;;3.60;3.30;;;;;;;24.51;54.30;99385.50;1799191;78;21081;-76
2021/05/16 07:20:50;;;;;;;3.30;3.08;;;;;;;24.53;54.27;99390.11;1810399;78;21120;-77
2021/05/16 07:23:18;;;;;;;3.08;2.85;;;;;;;24.57;54.21;99391.75;1803899;78;21202;-76
2021/05/16 07:25:45;;;;;;;3.45;3.15;;;;;;;24.59;54.18;99394.50;1801531;78;21582;-76
2021/05/16 07:28:11;;;;;;;3.08;2.87;;;;;;;24.63;54.14;99389.34;1810321;77;21094;-75
2021/05/16 07:30:38;;;;;;;3.50;3.20;;;;;;;24.66;54.13;99383.36;1808592;77;21400;-76
2021/05/16 07:33:05;;;;;;;3.50;3.20;;;;;;;24.68;54.06;99391.50;1810270;78;21024;-76
2021/05/16 07:35:31;;;;;;;3.30;3.00;;;;;;;24.72;54.05;99398.56;1813322;78;21067;-77
2021/05/16 07:37:57;;;;;;;3.10;2.90;;;;;;;24.76;54.00;99404.28;1824893;77;21635;-76
2021/05/16 07:40:25;;;;;;;3.83;3.52;;;;;;;24.78;53.96;99396.12;1809517;77;21867;-76
2021/05/16 07:42:52;;;;;;;3.15;2.95;;;;;;;24.81;53.93;99397.50;1803147;78;21033;-76
2021/05/16 07:45:20;;;;;;;3.52;3.22;;;;;;;24.83;53.88;99398.85;1802437;78;21050;-75
2021/05/16 07:47:46;;;;;;;3.17;2.87;;;;;;;24.86;53.88;99396.12;1811279;78;21120;-76
2021/05/16 07:50:14;;;;;;;3.50;3.20;;;;;;;24.87;53.85;99402.66;1800452;77;21054;-77
2021/05/16 07:52:40;;;;;;;3.27;2.98;;;;;;;24.90;53.82;99391.81;1800474;78;21073;-75
2021/05/16 07:55:08;;;;;;;3.20;3.00;;;;;;;24.93;53.78;99385.81;1814575;78;21349;-76
2021/05/16 07:57:35;;;;;;;3.08;2.87;;;;;;;24.95;53.75;99395.06;1826068;78;21046;-77
2021/05/16 08:00:02;;;;;;;3.20;3.00;;;;;;;24.97;53.73;99381.47;1827842;78;21034;-79
2021/05/16 08:02:30;;;;;;;3.08;2.87;;;;;;;24.99;53.68;99376.58;1803994;78;21045;-77
2021/05/16 08:04:58;;;;;;;2.75;2.55;;;;;;;25.03;53.69;99376.84;1806033;77;21142;-76
2021/05/16 08:07:24;;;;;;;3.10;2.90;;;;;;;25.04;53.69;99373.06;1799132;78;21027;-75
2021/05/16 08:09:51;;;;;;;2.92;2.72;;;;;;;25.07;53.71;99380.64;1797194;78;20999;-74
2021/05/16 08:12:18;;;;;;;2.70;2.50;;;;;;;25.09;53.74;99379.83;1795389;78;21064;-74
2021/05/16 08:14:46;;;;;;;2.87;2.62;;;;;;;25.12;53.78;99385.53;1795742;79;21043;-74
2021/05/16 08:17:14;;;;;;;3.83;3.05;;;;;;;25.16;53.80;99380.38;1782679;79;21102;-74
2021/05/16 08:19:43;;;;;;;3.40;3.10;;;;;;;25.19;53.78;99377.13;1782678;79;21039;-73
2021/05/16 08:22:10;;;;;;;3.00;2.80;;;;;;;25.21;53.74;99377.66;1788024;79;21011;-73
2021/05/16 08:24:37;;;;;;;3.60;2.87;;;;;;;25.24;53.73;99373.05;1788066;78;21039;-76
2021/05/16 08:27:07;;;;;;;3.15;2.85;;;;;;;25.27;53.71;99373.06;1796467;79;21109;-75
2021/05/16 08:29:36;;;;;;;2.83;2.62;;;;;;;25.30;53.75;99372.50;1770985;79;21204;-76
2021/05/16 08:32:04;;;;;;;3.08;2.87;;;;;;;25.32;53.69;99374.40;1765833;79;21078;-77
2021/05/16 08:34:31;;;;;;;2.80;2.60;;;;;;;25.34;53.67;99370.86;1785006;79;21618;-77
2021/05/16 08:36:58;;;;;;;3.05;2.85;;;;;;;25.37;53.61;99380.39;1781274;77;21094;-78
2021/05/16 08:39:25;;;;;;;2.77;2.58;;;;;;;25.39;53.53;99381.73;1787486;79;21043;-77
2021/05/16 08:41:52;;;;;;;2.75;2.55;;;;;;;25.41;53.48;99380.11;1713435;83;21078;-77
2021/05/16 08:44:20;;;;;;;3.33;3.02;;;;;;;25.42;53.40;99372.20;1733187;79;21111;-76
2021/05/16 08:46:47;;;;;;;2.70;2.50;;;;;;;25.45;53.38;99373.03;1787065;77;21075;-78
2021/05/16 08:49:13;;;;;;;2.65;2.45;;;;;;;25.47;53.38;99372.20;1765132;79;21059;-78
2021/05/16 08:51:44;;;;;;;2.50;2.30;;;;;;;25.49;53.35;99370.02;1787074;78;21035;-78
2021/05/16 08:54:10;;;;;;;3.27;2.60;;;;;;;25.51;53.33;99356.96;1792607;78;21797;-77
2021/05/16 08:56:36;;;;;;;2.80;2.58;;;;;;;25.54;53.33;99360.50;1781190;79;21632;-76
2021/05/16 08:59:03;;;;;;;2.80;2.60;;;;;;;25.56;53.31;99358.31;1779500;78;21129;-78
2021/05/16 09:01:35;;;;;;;2.90;2.70;;;;;;;25.60;53.31;99358.03;1786168;79;21102;-78
2021/05/16 09:03:58;;;;;;;2.72;2.52;;;;;;;25.62;53.31;99351.77;1793741;78;21099;-78
2021/05/16 09:06:33;;;;;;;2.62;2.42;;;;;;;25.66;53.29;99354.20;1744271;79;21074;-76
2021/05/16 09:09:28;;;;;;;2.42;2.22;;;;;;;25.70;53.26;99340.30;1779660;79;21082;-80
2021/05/16 09:12:01;;;;;;;2.75;2.55;;;;;;;25.77;53.22;99335.11;1787515;79;21082;-79
2021/05/16 09:14:53;;;;;;;3.22;2.92;;;;;;;25.80;53.21;99331.28;1787700;79;21106;-79
2021/05/16 09:17:31;;;;;;;2.58;2.37;;;;;;;25.86;53.22;99337.52;1784502;77;21079;-78
2021/05/16 09:20:10;;;;;;;2.77;2.58;;;;;;;25.90;53.20;99329.91;1777513;79;21073;-78
2021/05/16 09:22:47;;;;;;;2.77;2.58;;;;;;;25.95;53.17;99329.08;1792924;79;21052;-77
2021/05/16 09:25:26;;;;;;;3.37;2.60;;;;;;;26.02;53.12;99329.59;1804177;79;21088;-78
2021/05/16 09:27:56;;;;;;;2.90;2.70;;;;;;;26.08;53.04;99331.19;1798300;79;21543;-81
2021/05/16 09:30:26;;;;;;;2.52;2.33;;;;;;;26.15;52.99;99323.26;1772499;79;21094;-81
2021/05/16 09:33:13;;;;;;;3.20;2.80;;;;;;;26.21;52.93;99329.77;1774015;77;21114;-75
2021/05/16 09:35:47;;;;;;;2.33;2.12;;;;;;;26.27;52.89;99323.75;1770857;79;21102;-76
2021/05/16 09:38:16;;;;;;;2.90;2.65;;;;;;;26.34;52.83;99329.67;1777157;79;21066;-76
2021/05/16 09:40:53;;;;;;;2.25;2.12;;;;;;;26.41;52.75;99327.45;1770625;79;21122;-76
2021/05/16 09:43:31;;;;;;;6.50;3.45;;;;;;;26.48;52.70;99326.59;1778143;77;21035;-70
2021/05/16 09:46:05;;;;;;;4.70;3.45;;;;;;;26.55;51.88;99325.45;1773940;79;21082;-70
2021/05/16 09:48:41;;;;;;;4.75;3.77;;;;;;;26.58;50.65;99322.14;1774960;79;21102;-70
2021/05/16 09:51:22;;;;;;;4.03;3.62;;;;;;;26.60;49.64;99324.89;1777489;77;21589;-70
2021/05/16 09:53:58;;;;;;;8.20;4.17;;;;;;;26.62;48.48;99321.34;1776719;79;21069;-68
2021/05/16 09:56:29;;;;;;;4.20;3.60;;;;;;;26.65;47.19;99333.01;1775340;79;21147;-76
2021/05/16 09:59:01;;;;;;;14.05;9.53;;;;;;;26.70;46.37;99325.92;1781987;77;21043;-70
2021/05/16 10:01:28;;;;;;;42.45;23.38;;;;;;;26.73;44.46;99327.50;1792877;79;22141;-69
2021/05/16 10:03:57;;;;;;;155.72;82.92;;;;;;;26.79;44.66;99340.53;1794139;77;21099;-71
2021/05/16 10:06:24;;;;;;;102.92;54.38;;;;;;;26.83;41.92;99330.69;1790850;79;21641;-71
2021/05/16 10:08:51;;;;;;;85.28;42.33;;;;;;;26.86;41.96;99334.21;1772712;79;21031;-74
2021/05/16 10:11:21;;;;;;;79.47;41.00;;;;;;;26.91;42.50;99326.53;1776683;79;21131;-70
2021/05/16 10:14:04;;;;;;;81.10;45.55;;;;;;;26.97;41.38;99332.22;1782531;78;21085;-73
2021/05/16 10:16:33;;;;;;;;;;;;;;;27.03;42.31;99317.44;1806898;78;21082;-72
2021/05/16 10:18:59;;;;;;;53.02;28.38;;;;;;;27.09;42.81;99308.11;1801620;78;20672;-75
2021/05/16 10:21:26;;;;;;;64.53;34.58;;;;;;;27.09;42.57;99300.48;1801389;78;21711;-72
2021/05/16 10:24:13;;;;;;;41.83;23.67;;;;;;;27.13;42.65;99301.53;1816898;78;21117;-73
2021/05/16 10:26:43;;;;;;;48.05;25.45;;;;;;;27.18;42.13;99291.39;1802402;78;21030;-74
2021/05/16 10:29:13;;;;;;;51.77;27.65;;;;;;;27.24;42.09;99291.63;1814300;78;21050;-76
2021/05/16 10:31:53;;;;;;;47.80;27.32;;;;;;;27.30;42.48;99287.48;1809832;78;20991;-76
2021/05/16 10:34:36;;;;;;;44.50;26.33;;;;;;;27.36;42.58;99287.13;1807075;78;21592;-74
2021/05/16 10:37:03;;;;;;;41.13;24.25;;;;;;;27.43;42.58;99293.61;1801975;78;21064;-74
2021/05/16 10:39:45;;;;;;;38.75;24.27;;;;;;;27.47;42.55;99297.38;1806512;78;21097;-71
2021/05/16 10:42:25;;;;;;;29.20;17.73;;;;;;;27.51;42.39;99282.61;1815919;78;21042;-76
2021/05/16 10:45:15;;;;;;;29.37;16.90;;;;;;;27.57;41.98;99296.44;1801879;78;21073;-75
2021/05/16 10:50:27;;;;;;;;;;;;;;;27.64;40.72;99284.06;1816492;78;20979;-74
2021/05/16 10:53:11;;;;;;;23.92;13.53;;;;;;;27.70;40.56;99285.34;1807379;78;20242;-72
2021/05/16 10:55:40;;;;;;;22.25;13.25;;;;;;;27.63;40.79;99274.24;1800103;78;21578;-73
2021/05/16 10:58:07;;;;;;;17.48;11.00;;;;;;;27.69;40.62;99274.19;1813095;78;21105;-71
2021/05/16 11:00:40;;;;;;;20.12;12.93;;;;;;;27.72;40.08;99273.05;1805966;77;21586;-72
2021/05/16 11:03:14;;;;;;;18.60;12.82;;;;;;;27.78;40.23;99272.44;1800714;78;21112;-73
2021/05/16 11:05:51;;;;;;;18.32;10.72;;;;;;;27.83;40.47;99262.80;1803295;77;21084;-73
2021/05/16 11:08:26;;;;;;;18.40;12.05;;;;;;;27.88;40.27;99257.30;1802352;78;21101;-72
2021/05/16 11:10:55;;;;;;;12.90;8.58;;;;;;;27.94;40.40;99259.41;1800681;78;21112;-73
2021/05/16 11:13:33;;;;;;;20.32;6.47;;;;;;;27.98;40.15;99257.15;1797475;78;21134;-72
2021/05/16 11:16:07;;;;;;;10.60;8.80;;;;;;;28.04;39.62;99249.14;1764084;79;21138;-74
2021/05/16 11:18:34;;;;;;;13.05;8.38;;;;;;;28.12;39.62;99237.30;1769342;78;21535;-74
2021/05/16 11:21:05;;;;;;;10.75;7.62;;;;;;;28.18;39.48;99234.73;1775336;79;21150;-73
2021/05/16 11:23:36;;;;;;;11.18;7.08;;;;;;;28.23;39.34;99237.39;1767643;78;21079;-72
2021/05/16 11:26:09;;;;;;;9.93;6.62;;;;;;;28.29;39.18;99230.73;1788521;79;21026;-76
2021/05/16 11:29:57;;;;;;;10.95;6.72;;;;;;;28.43;38.74;99234.88;1795340;77;22722;-73
2021/05/16 11:32:29;;;;;;;9.45;5.90;;;;;;;28.41;38.79;99229.73;1757980;80;21283;-74
2021/05/16 11:35:10;;;;;;;10.78;5.35;;;;;;;28.49;38.75;99226.88;1767261;80;21657;-72
2021/05/16 11:37:38;;;;;;;7.45;5.12;;;;;;;28.53;38.70;99218.89;1764406;80;20980;-67
2021/05/16 11:40:25;;;;;;;6.33;3.90;;;;;;;28.56;38.08;99215.58;1776803;80;21096;-68
2021/05/16 11:43:04;;;;;;;8.53;3.77;;;;;;;28.60;37.86;99207.03;1760887;80;21102;-66